• Join FlightAware (Why Join?)
  • Login
  • US Flag 
02:14AM EDT


 

Airport Tracker/Info


-or-


 

Live Flight TrackerFlight Track Log ✈ N839CA ✈ 29-Apr-2013 ✈ KEWR - KROC

Flight Track Log - Related Links

Times and Time Zones

All times are in EDT time to prevent confusion due to time zone crossing. See the N839CA flight status page for this flight to view local times or setup timezone preferences in your user account.

Time Position Orientation Groundspeed Altitude Reporting Facility
EDT Latitude Longitude Course Direction KTS MPH feet Rate Location/Type
11:10PM 41.0186 -74.6157 314° West  Level Estimated
11:11PM 41.0650 -74.6800 314° West  Level Estimated
11:12PM 41.1114 -74.7443 314° West  Level Estimated
11:13PM 41.1578 -74.8087 314° West  Level Estimated
11:14PM 41.2041 -74.8732 314° West  Level Estimated
11:15PM 41.2504 -74.9378 314° West  Level Estimated
11:16PM 41.2967 -75.0025 314° West  Level Estimated
11:17PM 41.3429 -75.0672 314° West  Level Estimated
11:18PM 41.3891 -75.1321 314° West  Level Estimated
11:19PM 41.4352 -75.1971 313° West  Level Estimated
11:20PM 41.4813 -75.2621 313° West  Level Estimated
11:21PM 41.5274 -75.3272 313° West  Level Estimated
11:22PM 41.5734 -75.3925 313° West  Level Estimated
11:23PM 41.6194 -75.4578 313° West  Level Estimated
11:24PM 41.6654 -75.5232 313° West  Level Estimated
11:25PM 41.7113 -75.5888 313° West  Level Estimated
11:26PM 41.7572 -75.6544 313° West  Level Estimated
11:27PM 41.8031 -75.7201 313° West  Level Estimated
11:28PM 41.8489 -75.7859 313° West  Level Estimated
11:29PM 41.8947 -75.8518 313° West  Level Estimated
11:30PM 41.9404 -75.9177 313° West  Level Estimated
11:31PM 41.9861 -75.9838 313° West  Level Estimated
11:32PM 42.0318 -76.0500 313° West  Level Estimated
11:33PM 42.0774 -76.1163 313° West  Level Estimated
11:34PM 42.1230 -76.1826 313° West  Level Estimated
11:35PM 42.1686 -76.2491 313° West  Level Estimated
11:36PM 42.2141 -76.3157 313° West  Level Estimated
11:37PM 42.2595 -76.3823 313° West  Level Estimated
11:38PM 42.3050 -76.4491 313° West  Level Estimated
11:39PM 42.3504 -76.5159 313° West  Level Estimated
11:40PM 42.3957 -76.5828 313° West  Level Estimated
11:41PM 42.4411 -76.6499 313° West  Level Estimated
11:42PM 42.4864 -76.7170 312° West  Level Estimated
11:43PM 42.5316 -76.7842 312° West  Level Estimated
11:44PM 42.5768 -76.8516 312° West  Level Estimated
11:45PM 42.6219 -76.9190 312° West  Level Estimated
11:46PM 42.6671 -76.9865 312° West  Level Estimated
11:47PM 42.7122 -77.0541 312° West  Level Estimated
11:48PM 42.7572 -77.1219 312° West  Level Estimated
11:49PM 42.8022 -77.1897 312° West  Level Estimated
11:50PM 42.8471 -77.2576 312° West  Level Estimated
11:51PM 42.8921 -77.3256 312° West  Level Estimated
11:52PM 42.9370 -77.3937 312° West  Level Estimated
11:53PM 42.9818 -77.4619 312° West  Level Estimated
11:54PM 43.0266 -77.5303 312° West  Level Estimated
11:55PM 43.0714 -77.5987 312° West  Level Estimated
11:56PM 43.1161 -77.6672 312° West  Level Estimated
11:57PM 43.1191 -77.6719 312° West  Level Estimated
11:58PM 43.1191 -77.6719 14° North  Level Estimated
11:59PM 43.1191 -77.6719 14° North  Level Estimated
12:00AM 43.1191 -77.6719 14° North  Level Estimated
12:01AM 43.1191 -77.6719 14° North  Level Estimated
12:02AM 43.1191 -77.6719 14° North  Level Estimated
12:03AM 43.1191 -77.6719 14° North  Level Estimated
12:04AM 43.1191 -77.6719 14° North  Level Estimated
12:05AM 43.1191 -77.6719 14° North  Level Estimated
12:06AM 43.1191 -77.6719 14° North  Level Estimated
12:07AM 43.1191 -77.6719 14° North  Level Estimated
12:08AM 43.1191 -77.6719 14° North  Level Estimated
12:09AM 43.1191 -77.6719 14° North  Level Estimated
12:10AM 43.1191 -77.6719 14° North  Level Estimated
12:11AM 43.1191 -77.6719 14° North  Level Estimated
12:12AM 43.1191 -77.6719 14° North  Level Estimated